sensor_id;sensor_type;location;lat;lon;timestamp;P1;durP1;ratioP1;P2;durP2;ratioP2
62353;SDS011;48391;49.184;2.418;2023-12-07T00:01:43;22.00;;;11.55;;
62353;SDS011;48391;49.184;2.418;2023-12-07T00:04:09;20.73;;;11.50;;
62353;SDS011;48391;49.184;2.418;2023-12-07T00:06:35;18.85;;;11.18;;
62353;SDS011;48391;49.184;2.418;2023-12-07T00:09:01;24.50;;;13.85;;
62353;SDS011;48391;49.184;2.418;2023-12-07T00:11:27;22.33;;;12.38;;
62353;SDS011;48391;49.184;2.418;2023-12-07T00:13:53;17.67;;;10.90;;
62353;SDS011;48391;49.184;2.418;2023-12-07T00:16:19;15.15;;;10.15;;
62353;SDS011;48391;49.184;2.418;2023-12-07T00:18:45;14.20;;;9.18;;
62353;SDS011;48391;49.184;2.418;2023-12-07T00:21:11;14.55;;;9.15;;
62353;SDS011;48391;49.184;2.418;2023-12-07T00:23:37;11.73;;;7.68;;
62353;SDS011;48391;49.184;2.418;2023-12-07T00:26:03;14.88;;;8.70;;
62353;SDS011;48391;49.184;2.418;2023-12-07T00:28:30;16.23;;;9.02;;
62353;SDS011;48391;49.184;2.418;2023-12-07T00:30:56;20.55;;;12.25;;
62353;SDS011;48391;49.184;2.418;2023-12-07T00:33:22;17.17;;;10.18;;
62353;SDS011;48391;49.184;2.418;2023-12-07T00:35:48;16.67;;;8.73;;
62353;SDS011;48391;49.184;2.418;2023-12-07T00:38:14;22.80;;;13.60;;
62353;SDS011;48391;49.184;2.418;2023-12-07T00:40:40;23.80;;;13.27;;
62353;SDS011;48391;49.184;2.418;2023-12-07T00:43:06;20.63;;;12.05;;
62353;SDS011;48391;49.184;2.418;2023-12-07T00:45:33;24.67;;;12.43;;
62353;SDS011;48391;49.184;2.418;2023-12-07T00:47:59;25.35;;;13.23;;
62353;SDS011;48391;49.184;2.418;2023-12-07T00:50:25;18.48;;;10.25;;
62353;SDS011;48391;49.184;2.418;2023-12-07T00:52:51;20.60;;;11.38;;
62353;SDS011;48391;49.184;2.418;2023-12-07T00:55:17;16.90;;;9.38;;
62353;SDS011;48391;49.184;2.418;2023-12-07T00:57:43;18.25;;;10.00;;
62353;SDS011;48391;49.184;2.418;2023-12-07T01:00:09;18.02;;;9.73;;
62353;SDS011;48391;49.184;2.418;2023-12-07T01:02:35;21.67;;;9.85;;
62353;SDS011;48391;49.184;2.418;2023-12-07T01:05:02;16.58;;;9.80;;
62353;SDS011;48391;49.184;2.418;2023-12-07T01:07:28;17.00;;;9.80;;
62353;SDS011;48391;49.184;2.418;2023-12-07T01:09:54;16.67;;;9.38;;
62353;SDS011;48391;49.184;2.418;2023-12-07T01:12:20;15.43;;;9.07;;
62353;SDS011;48391;49.184;2.418;2023-12-07T01:14:46;25.83;;;14.23;;
62353;SDS011;48391;49.184;2.418;2023-12-07T01:17:12;18.63;;;10.93;;
62353;SDS011;48391;49.184;2.418;2023-12-07T01:19:38;21.05;;;11.70;;
62353;SDS011;48391;49.184;2.418;2023-12-07T01:22:04;18.00;;;8.27;;
62353;SDS011;48391;49.184;2.418;2023-12-07T01:24:30;15.80;;;9.18;;
62353;SDS011;48391;49.184;2.418;2023-12-07T01:26:56;23.00;;;11.85;;
62353;SDS011;48391;49.184;2.418;2023-12-07T01:29:22;25.83;;;13.23;;
62353;SDS011;48391;49.184;2.418;2023-12-07T01:31:48;24.85;;;12.23;;
62353;SDS011;48391;49.184;2.418;2023-12-07T01:34:14;23.95;;;13.02;;
62353;SDS011;48391;49.184;2.418;2023-12-07T01:36:40;20.55;;;11.57;;
62353;SDS011;48391;49.184;2.418;2023-12-07T01:39:06;22.42;;;10.45;;
62353;SDS011;48391;49.184;2.418;2023-12-07T01:41:36;21.25;;;10.85;;
62353;SDS011;48391;49.184;2.418;2023-12-07T01:44:02;23.38;;;11.00;;
62353;SDS011;48391;49.184;2.418;2023-12-07T01:46:29;20.95;;;12.18;;
62353;SDS011;48391;49.184;2.418;2023-12-07T01:48:55;22.33;;;10.80;;
62353;SDS011;48391;49.184;2.418;2023-12-07T01:51:21;20.90;;;10.05;;
62353;SDS011;48391;49.184;2.418;2023-12-07T01:53:47;17.73;;;10.63;;
62353;SDS011;48391;49.184;2.418;2023-12-07T01:56:15;16.13;;;8.15;;
62353;SDS011;48391;49.184;2.418;2023-12-07T01:58:41;14.13;;;8.15;;
62353;SDS011;48391;49.184;2.418;2023-12-07T02:01:07;22.85;;;12.55;;
62353;SDS011;48391;49.184;2.418;2023-12-07T02:03:36;19.30;;;10.48;;
62353;SDS011;48391;49.184;2.418;2023-12-07T02:06:03;21.80;;;10.93;;
62353;SDS011;48391;49.184;2.418;2023-12-07T02:08:30;17.85;;;8.68;;
62353;SDS011;48391;49.184;2.418;2023-12-07T02:10:56;16.08;;;7.80;;
62353;SDS011;48391;49.184;2.418;2023-12-07T02:13:22;15.15;;;9.13;;
62353;SDS011;48391;49.184;2.418;2023-12-07T02:15:48;15.07;;;7.72;;
62353;SDS011;48391;49.184;2.418;2023-12-07T02:18:26;15.48;;;7.93;;
62353;SDS011;48391;49.184;2.418;2023-12-07T02:21:00;16.67;;;9.65;;
62353;SDS011;48391;49.184;2.418;2023-12-07T02:23:28;23.65;;;12.60;;
62353;SDS011;48391;49.184;2.418;2023-12-07T02:25:54;16.52;;;9.48;;
62353;SDS011;48391;49.184;2.418;2023-12-07T02:28:26;17.65;;;9.70;;
62353;SDS011;48391;49.184;2.418;2023-12-07T02:30:52;19.38;;;10.73;;
62353;SDS011;48391;49.184;2.418;2023-12-07T02:33:18;17.20;;;9.20;;
62353;SDS011;48391;49.184;2.418;2023-12-07T02:35:44;17.17;;;10.32;;
62353;SDS011;48391;49.184;2.418;2023-12-07T02:38:10;13.88;;;8.48;;
62353;SDS011;48391;49.184;2.418;2023-12-07T02:40:36;13.07;;;7.90;;
62353;SDS011;48391;49.184;2.418;2023-12-07T02:43:03;15.30;;;8.18;;
62353;SDS011;48391;49.184;2.418;2023-12-07T02:45:29;12.15;;;7.53;;
62353;SDS011;48391;49.184;2.418;2023-12-07T02:47:56;13.93;;;8.23;;
62353;SDS011;48391;49.184;2.418;2023-12-07T02:50:23;12.20;;;6.65;;
62353;SDS011;48391;49.184;2.418;2023-12-07T02:52:49;11.75;;;7.72;;
62353;SDS011;48391;49.184;2.418;2023-12-07T02:55:15;13.77;;;7.10;;
62353;SDS011;48391;49.184;2.418;2023-12-07T02:57:42;12.30;;;7.10;;
62353;SDS011;48391;49.184;2.418;2023-12-07T03:00:08;12.27;;;6.80;;
62353;SDS011;48391;49.184;2.418;2023-12-07T03:02:38;10.57;;;6.90;;
62353;SDS011;48391;49.184;2.418;2023-12-07T03:05:04;13.10;;;6.68;;
62353;SDS011;48391;49.184;2.418;2023-12-07T03:07:31;17.23;;;9.52;;
62353;SDS011;48391;49.184;2.418;2023-12-07T03:09:57;16.23;;;9.20;;
62353;SDS011;48391;49.184;2.418;2023-12-07T03:12:23;16.65;;;8.88;;
62353;SDS011;48391;49.184;2.418;2023-12-07T03:14:49;14.35;;;7.95;;
62353;SDS011;48391;49.184;2.418;2023-12-07T03:17:15;13.98;;;8.82;;
62353;SDS011;48391;49.184;2.418;2023-12-07T03:19:41;18.17;;;10.60;;
62353;SDS011;48391;49.184;2.418;2023-12-07T03:22:07;19.77;;;10.15;;
62353;SDS011;48391;49.184;2.418;2023-12-07T03:24:36;16.25;;;9.55;;
62353;SDS011;48391;49.184;2.418;2023-12-07T03:27:03;15.55;;;8.65;;
62353;SDS011;48391;49.184;2.418;2023-12-07T03:29:30;19.60;;;8.95;;
62353;SDS011;48391;49.184;2.418;2023-12-07T03:31:56;19.42;;;10.63;;
62353;SDS011;48391;49.184;2.418;2023-12-07T03:34:22;15.38;;;9.35;;
62353;SDS011;48391;49.184;2.418;2023-12-07T03:36:48;16.77;;;9.30;;
62353;SDS011;48391;49.184;2.418;2023-12-07T03:39:15;13.90;;;8.15;;
62353;SDS011;48391;49.184;2.418;2023-12-07T03:41:41;14.65;;;8.63;;
62353;SDS011;48391;49.184;2.418;2023-12-07T03:44:07;15.18;;;9.10;;
62353;SDS011;48391;49.184;2.418;2023-12-07T03:46:33;14.73;;;8.82;;
62353;SDS011;48391;49.184;2.418;2023-12-07T03:48:59;17.67;;;9.48;;
62353;SDS011;48391;49.184;2.418;2023-12-07T03:51:29;12.77;;;7.72;;
62353;SDS011;48391;49.184;2.418;2023-12-07T03:53:56;12.02;;;6.38;;
62353;SDS011;48391;49.184;2.418;2023-12-07T03:56:22;10.63;;;6.22;;
62353;SDS011;48391;49.184;2.418;2023-12-07T03:58:48;14.55;;;8.13;;
62353;SDS011;48391;49.184;2.418;2023-12-07T04:01:14;12.15;;;6.95;;
62353;SDS011;48391;49.184;2.418;2023-12-07T04:03:40;13.57;;;8.10;;
62353;SDS011;48391;49.184;2.418;2023-12-07T04:06:07;9.65;;;6.15;;
62353;SDS011;48391;49.184;2.418;2023-12-07T04:08:34;12.90;;;7.40;;
62353;SDS011;48391;49.184;2.418;2023-12-07T04:11:00;13.52;;;9.35;;
62353;SDS011;48391;49.184;2.418;2023-12-07T04:13:26;12.48;;;7.53;;
62353;SDS011;48391;49.184;2.418;2023-12-07T04:15:52;15.60;;;9.60;;
62353;SDS011;48391;49.184;2.418;2023-12-07T04:18:18;15.95;;;8.98;;
62353;SDS011;48391;49.184;2.418;2023-12-07T04:20:44;13.65;;;8.23;;
62353;SDS011;48391;49.184;2.418;2023-12-07T04:23:10;12.73;;;7.43;;
62353;SDS011;48391;49.184;2.418;2023-12-07T04:25:36;10.05;;;6.35;;
62353;SDS011;48391;49.184;2.418;2023-12-07T04:28:02;10.45;;;6.63;;
62353;SDS011;48391;49.184;2.418;2023-12-07T04:30:28;13.73;;;8.18;;
62353;SDS011;48391;49.184;2.418;2023-12-07T04:32:54;10.38;;;7.03;;
62353;SDS011;48391;49.184;2.418;2023-12-07T04:35:20;7.45;;;6.00;;
62353;SDS011;48391;49.184;2.418;2023-12-07T04:37:46;11.63;;;7.35;;
62353;SDS011;48391;49.184;2.418;2023-12-07T04:40:12;11.82;;;7.32;;
62353;SDS011;48391;49.184;2.418;2023-12-07T04:42:39;12.88;;;7.65;;
62353;SDS011;48391;49.184;2.418;2023-12-07T04:45:06;11.13;;;7.60;;
62353;SDS011;48391;49.184;2.418;2023-12-07T04:47:32;12.25;;;7.03;;
62353;SDS011;48391;49.184;2.418;2023-12-07T04:49:59;9.95;;;5.40;;
62353;SDS011;48391;49.184;2.418;2023-12-07T04:52:25;12.13;;;7.13;;
62353;SDS011;48391;49.184;2.418;2023-12-07T04:54:51;7.95;;;5.50;;
62353;SDS011;48391;49.184;2.418;2023-12-07T04:57:17;10.63;;;6.57;;
62353;SDS011;48391;49.184;2.418;2023-12-07T04:59:43;14.18;;;8.40;;
62353;SDS011;48391;49.184;2.418;2023-12-07T05:02:15;12.65;;;8.50;;
62353;SDS011;48391;49.184;2.418;2023-12-07T05:04:41;11.13;;;8.10;;
62353;SDS011;48391;49.184;2.418;2023-12-07T05:07:07;11.10;;;7.68;;
62353;SDS011;48391;49.184;2.418;2023-12-07T05:09:33;9.40;;;7.15;;
62353;SDS011;48391;49.184;2.418;2023-12-07T05:12:00;11.25;;;7.22;;
62353;SDS011;48391;49.184;2.418;2023-12-07T05:14:26;11.07;;;7.75;;
62353;SDS011;48391;49.184;2.418;2023-12-07T05:16:52;12.55;;;7.40;;
62353;SDS011;48391;49.184;2.418;2023-12-07T05:19:20;11.05;;;6.68;;
62353;SDS011;48391;49.184;2.418;2023-12-07T05:21:46;8.98;;;6.40;;
62353;SDS011;48391;49.184;2.418;2023-12-07T05:24:13;10.63;;;6.35;;
62353;SDS011;48391;49.184;2.418;2023-12-07T05:26:42;12.27;;;7.43;;
62353;SDS011;48391;49.184;2.418;2023-12-07T05:29:08;9.15;;;7.07;;
62353;SDS011;48391;49.184;2.418;2023-12-07T05:31:35;10.55;;;7.15;;
62353;SDS011;48391;49.184;2.418;2023-12-07T05:34:01;7.53;;;5.03;;
62353;SDS011;48391;49.184;2.418;2023-12-07T05:36:28;7.47;;;6.25;;
62353;SDS011;48391;49.184;2.418;2023-12-07T05:38:54;9.57;;;6.22;;
62353;SDS011;48391;49.184;2.418;2023-12-07T05:41:20;10.20;;;6.18;;
62353;SDS011;48391;49.184;2.418;2023-12-07T05:43:47;11.43;;;7.60;;
62353;SDS011;48391;49.184;2.418;2023-12-07T05:46:13;10.93;;;7.05;;
62353;SDS011;48391;49.184;2.418;2023-12-07T05:48:40;13.20;;;8.40;;
62353;SDS011;48391;49.184;2.418;2023-12-07T05:51:12;8.65;;;5.28;;
62353;SDS011;48391;49.184;2.418;2023-12-07T05:53:39;8.60;;;5.70;;
62353;SDS011;48391;49.184;2.418;2023-12-07T05:56:05;8.55;;;6.55;;
62353;SDS011;48391;49.184;2.418;2023-12-07T05:58:31;9.20;;;6.20;;
62353;SDS011;48391;49.184;2.418;2023-12-07T06:00:57;9.50;;;7.13;;
62353;SDS011;48391;49.184;2.418;2023-12-07T06:03:24;7.50;;;5.63;;
62353;SDS011;48391;49.184;2.418;2023-12-07T06:05:51;9.50;;;7.00;;
62353;SDS011;48391;49.184;2.418;2023-12-07T06:08:17;8.00;;;5.53;;
62353;SDS011;48391;49.184;2.418;2023-12-07T06:10:44;6.70;;;5.13;;
62353;SDS011;48391;49.184;2.418;2023-12-07T06:13:10;5.95;;;4.60;;
62353;SDS011;48391;49.184;2.418;2023-12-07T06:15:36;7.13;;;5.20;;
62353;SDS011;48391;49.184;2.418;2023-12-07T06:18:02;5.78;;;4.75;;
62353;SDS011;48391;49.184;2.418;2023-12-07T06:20:28;8.85;;;5.63;;
62353;SDS011;48391;49.184;2.418;2023-12-07T06:22:54;8.68;;;4.82;;
62353;SDS011;48391;49.184;2.418;2023-12-07T06:25:20;8.98;;;5.10;;
62353;SDS011;48391;49.184;2.418;2023-12-07T06:27:47;5.63;;;4.60;;
62353;SDS011;48391;49.184;2.418;2023-12-07T06:30:13;3.88;;;3.30;;
62353;SDS011;48391;49.184;2.418;2023-12-07T06:32:39;8.07;;;6.18;;
62353;SDS011;48391;49.184;2.418;2023-12-07T06:35:05;8.73;;;4.82;;
62353;SDS011;48391;49.184;2.418;2023-12-07T06:37:31;8.18;;;5.57;;
62353;SDS011;48391;49.184;2.418;2023-12-07T06:39:57;8.60;;;5.80;;
62353;SDS011;48391;49.184;2.418;2023-12-07T06:42:25;7.03;;;4.82;;
62353;SDS011;48391;49.184;2.418;2023-12-07T06:44:51;10.63;;;7.05;;
62353;SDS011;48391;49.184;2.418;2023-12-07T06:47:17;9.23;;;7.10;;
62353;SDS011;48391;49.184;2.418;2023-12-07T06:49:43;9.48;;;6.47;;
62353;SDS011;48391;49.184;2.418;2023-12-07T06:52:09;10.73;;;5.93;;
62353;SDS011;48391;49.184;2.418;2023-12-07T06:54:36;10.88;;;6.22;;
62353;SDS011;48391;49.184;2.418;2023-12-07T06:57:03;8.70;;;5.47;;
62353;SDS011;48391;49.184;2.418;2023-12-07T06:59:29;8.80;;;5.10;;
62353;SDS011;48391;49.184;2.418;2023-12-07T07:01:55;9.85;;;6.75;;
62353;SDS011;48391;49.184;2.418;2023-12-07T07:04:21;8.68;;;5.07;;
62353;SDS011;48391;49.184;2.418;2023-12-07T07:06:47;7.45;;;5.72;;
62353;SDS011;48391;49.184;2.418;2023-12-07T07:09:14;11.07;;;8.32;;
62353;SDS011;48391;49.184;2.418;2023-12-07T07:11:40;5.25;;;4.47;;
62353;SDS011;48391;49.184;2.418;2023-12-07T07:14:07;4.57;;;4.07;;
62353;SDS011;48391;49.184;2.418;2023-12-07T07:16:33;5.70;;;4.97;;
62353;SDS011;48391;49.184;2.418;2023-12-07T07:18:59;7.70;;;5.65;;
62353;SDS011;48391;49.184;2.418;2023-12-07T07:21:25;7.50;;;5.35;;
62353;SDS011;48391;49.184;2.418;2023-12-07T07:23:51;7.50;;;4.00;;
62353;SDS011;48391;49.184;2.418;2023-12-07T07:26:17;8.82;;;6.13;;
62353;SDS011;48391;49.184;2.418;2023-12-07T07:28:43;8.30;;;5.43;;
62353;SDS011;48391;49.184;2.418;2023-12-07T07:31:09;8.70;;;5.32;;
62353;SDS011;48391;49.184;2.418;2023-12-07T07:33:35;5.38;;;4.32;;
62353;SDS011;48391;49.184;2.418;2023-12-07T07:36:02;8.40;;;5.07;;
62353;SDS011;48391;49.184;2.418;2023-12-07T07:38:28;8.15;;;5.75;;
62353;SDS011;48391;49.184;2.418;2023-12-07T07:40:54;7.38;;;4.82;;
62353;SDS011;48391;49.184;2.418;2023-12-07T07:43:20;6.53;;;5.55;;
62353;SDS011;48391;49.184;2.418;2023-12-07T07:45:47;6.72;;;4.55;;
62353;SDS011;48391;49.184;2.418;2023-12-07T07:48:13;8.35;;;4.78;;
62353;SDS011;48391;49.184;2.418;2023-12-07T07:50:39;4.88;;;3.80;;
62353;SDS011;48391;49.184;2.418;2023-12-07T07:53:05;9.23;;;5.30;;
62353;SDS011;48391;49.184;2.418;2023-12-07T07:55:31;10.98;;;5.72;;
62353;SDS011;48391;49.184;2.418;2023-12-07T07:57:57;7.75;;;5.55;;
62353;SDS011;48391;49.184;2.418;2023-12-07T08:00:23;8.02;;;4.57;;
62353;SDS011;48391;49.184;2.418;2023-12-07T08:02:53;5.53;;;4.30;;
62353;SDS011;48391;49.184;2.418;2023-12-07T08:05:19;6.25;;;4.80;;
62353;SDS011;48391;49.184;2.418;2023-12-07T08:07:45;6.05;;;4.25;;
62353;SDS011;48391;49.184;2.418;2023-12-07T08:10:11;9.00;;;4.50;;
62353;SDS011;48391;49.184;2.418;2023-12-07T08:12:39;5.82;;;4.00;;
62353;SDS011;48391;49.184;2.418;2023-12-07T08:15:06;4.60;;;4.03;;
62353;SDS011;48391;49.184;2.418;2023-12-07T08:17:36;4.20;;;3.20;;
62353;SDS011;48391;49.184;2.418;2023-12-07T08:20:02;5.65;;;4.28;;
62353;SDS011;48391;49.184;2.418;2023-12-07T08:22:28;6.82;;;5.22;;
62353;SDS011;48391;49.184;2.418;2023-12-07T08:24:55;5.10;;;4.53;;
62353;SDS011;48391;49.184;2.418;2023-12-07T08:27:21;5.45;;;4.50;;
62353;SDS011;48391;49.184;2.418;2023-12-07T08:29:47;5.78;;;4.25;;
62353;SDS011;48391;49.184;2.418;2023-12-07T08:32:13;6.82;;;4.55;;
62353;SDS011;48391;49.184;2.418;2023-12-07T08:34:40;5.07;;;4.20;;
62353;SDS011;48391;49.184;2.418;2023-12-07T08:37:06;8.45;;;5.15;;
62353;SDS011;48391;49.184;2.418;2023-12-07T08:39:32;6.78;;;4.40;;
62353;SDS011;48391;49.184;2.418;2023-12-07T08:41:58;5.05;;;4.55;;
62353;SDS011;48391;49.184;2.418;2023-12-07T08:44:25;5.60;;;4.53;;
62353;SDS011;48391;49.184;2.418;2023-12-07T08:46:51;5.15;;;4.20;;
62353;SDS011;48391;49.184;2.418;2023-12-07T08:49:18;9.40;;;5.97;;
62353;SDS011;48391;49.184;2.418;2023-12-07T08:51:44;6.15;;;5.25;;
62353;SDS011;48391;49.184;2.418;2023-12-07T08:54:10;7.45;;;5.13;;
62353;SDS011;48391;49.184;2.418;2023-12-07T08:56:36;5.68;;;4.82;;
62353;SDS011;48391;49.184;2.418;2023-12-07T08:59:02;8.32;;;5.10;;
62353;SDS011;48391;49.184;2.418;2023-12-07T09:01:28;8.55;;;5.72;;
62353;SDS011;48391;49.184;2.418;2023-12-07T09:03:58;7.13;;;5.57;;
62353;SDS011;48391;49.184;2.418;2023-12-07T09:06:24;6.03;;;4.72;;
62353;SDS011;48391;49.184;2.418;2023-12-07T09:08:50;6.40;;;5.15;;
62353;SDS011;48391;49.184;2.418;2023-12-07T09:11:16;7.95;;;4.85;;
62353;SDS011;48391;49.184;2.418;2023-12-07T09:13:42;5.97;;;4.22;;
62353;SDS011;48391;49.184;2.418;2023-12-07T09:16:08;5.90;;;4.32;;
62353;SDS011;48391;49.184;2.418;2023-12-07T09:18:34;4.57;;;4.18;;
62353;SDS011;48391;49.184;2.418;2023-12-07T09:21:01;6.30;;;4.15;;
62353;SDS011;48391;49.184;2.418;2023-12-07T09:23:28;5.38;;;4.25;;
62353;SDS011;48391;49.184;2.418;2023-12-07T09:25:54;8.27;;;4.55;;
62353;SDS011;48391;49.184;2.418;2023-12-07T09:28:20;6.72;;;4.45;;
62353;SDS011;48391;49.184;2.418;2023-12-07T09:30:46;5.80;;;4.88;;
62353;SDS011;48391;49.184;2.418;2023-12-07T09:33:12;9.82;;;4.35;;
62353;SDS011;48391;49.184;2.418;2023-12-07T09:35:38;8.10;;;5.03;;
62353;SDS011;48391;49.184;2.418;2023-12-07T09:38:04;6.75;;;5.40;;
62353;SDS011;48391;49.184;2.418;2023-12-07T09:40:32;5.70;;;4.65;;
62353;SDS011;48391;49.184;2.418;2023-12-07T09:42:58;4.82;;;3.80;;
62353;SDS011;48391;49.184;2.418;2023-12-07T09:45:24;4.43;;;3.53;;
62353;SDS011;48391;49.184;2.418;2023-12-07T09:47:53;4.70;;;4.13;;
62353;SDS011;48391;49.184;2.418;2023-12-07T09:50:20;5.93;;;3.92;;
62353;SDS011;48391;49.184;2.418;2023-12-07T09:52:50;6.00;;;4.38;;
62353;SDS011;48391;49.184;2.418;2023-12-07T09:55:17;5.55;;;4.65;;
62353;SDS011;48391;49.184;2.418;2023-12-07T09:57:43;10.02;;;6.50;;
62353;SDS011;48391;49.184;2.418;2023-12-07T10:00:12;5.90;;;4.40;;
62353;SDS011;48391;49.184;2.418;2023-12-07T10:02:43;4.47;;;4.05;;
62353;SDS011;48391;49.184;2.418;2023-12-07T10:05:10;6.45;;;4.68;;
62353;SDS011;48391;49.184;2.418;2023-12-07T10:07:39;4.55;;;3.90;;
62353;SDS011;48391;49.184;2.418;2023-12-07T10:10:06;8.20;;;5.07;;
62353;SDS011;48391;49.184;2.418;2023-12-07T10:12:32;5.22;;;4.10;;
62353;SDS011;48391;49.184;2.418;2023-12-07T10:15:11;4.95;;;3.85;;
62353;SDS011;48391;49.184;2.418;2023-12-07T10:17:48;10.35;;;4.70;;
62353;SDS011;48391;49.184;2.418;2023-12-07T10:20:17;3.88;;;2.80;;
62353;SDS011;48391;49.184;2.418;2023-12-07T10:22:46;5.53;;;4.25;;
62353;SDS011;48391;49.184;2.418;2023-12-07T10:25:13;5.13;;;3.75;;
62353;SDS011;48391;49.184;2.418;2023-12-07T10:27:40;6.13;;;3.85;;
62353;SDS011;48391;49.184;2.418;2023-12-07T10:30:08;6.45;;;4.70;;
62353;SDS011;48391;49.184;2.418;2023-12-07T10:32:38;4.50;;;3.88;;
62353;SDS011;48391;49.184;2.418;2023-12-07T10:35:07;6.32;;;4.20;;
62353;SDS011;48391;49.184;2.418;2023-12-07T10:37:35;5.25;;;3.80;;
62353;SDS011;48391;49.184;2.418;2023-12-07T10:40:01;4.50;;;3.58;;
62353;SDS011;48391;49.184;2.418;2023-12-07T10:42:28;5.45;;;3.88;;
62353;SDS011;48391;49.184;2.418;2023-12-07T10:44:58;4.13;;;3.45;;
62353;SDS011;48391;49.184;2.418;2023-12-07T10:47:27;4.13;;;3.72;;
62353;SDS011;48391;49.184;2.418;2023-12-07T10:49:54;6.45;;;3.92;;
62353;SDS011;48391;49.184;2.418;2023-12-07T10:52:23;5.85;;;3.15;;
62353;SDS011;48391;49.184;2.418;2023-12-07T10:55:02;4.43;;;3.80;;
62353;SDS011;48391;49.184;2.418;2023-12-07T10:57:30;6.38;;;4.25;;
62353;SDS011;48391;49.184;2.418;2023-12-07T10:59:57;3.90;;;3.17;;
62353;SDS011;48391;49.184;2.418;2023-12-07T11:02:23;3.80;;;3.45;;
62353;SDS011;48391;49.184;2.418;2023-12-07T11:04:50;4.40;;;3.20;;
62353;SDS011;48391;49.184;2.418;2023-12-07T11:07:17;4.40;;;3.10;;
62353;SDS011;48391;49.184;2.418;2023-12-07T11:09:47;2.42;;;2.22;;
62353;SDS011;48391;49.184;2.418;2023-12-07T11:12:18;3.00;;;2.70;;
62353;SDS011;48391;49.184;2.418;2023-12-07T11:14:46;7.15;;;3.95;;
62353;SDS011;48391;49.184;2.418;2023-12-07T11:17:12;4.40;;;3.13;;
62353;SDS011;48391;49.184;2.418;2023-12-07T11:19:44;5.38;;;2.85;;
62353;SDS011;48391;49.184;2.418;2023-12-07T11:22:11;4.50;;;3.55;;
62353;SDS011;48391;49.184;2.418;2023-12-07T11:24:38;3.58;;;3.17;;
62353;SDS011;48391;49.184;2.418;2023-12-07T11:27:05;4.57;;;4.00;;
62353;SDS011;48391;49.184;2.418;2023-12-07T11:29:31;4.70;;;4.13;;
62353;SDS011;48391;49.184;2.418;2023-12-07T11:32:01;6.03;;;3.38;;
62353;SDS011;48391;49.184;2.418;2023-12-07T11:34:49;4.95;;;3.13;;
62353;SDS011;48391;49.184;2.418;2023-12-07T11:37:19;5.55;;;4.40;;
62353;SDS011;48391;49.184;2.418;2023-12-07T11:39:45;5.68;;;3.50;;
62353;SDS011;48391;49.184;2.418;2023-12-07T11:42:12;3.80;;;3.17;;
62353;SDS011;48391;49.184;2.418;2023-12-07T11:44:38;7.28;;;3.13;;
62353;SDS011;48391;49.184;2.418;2023-12-07T11:47:05;4.55;;;3.70;;
62353;SDS011;48391;49.184;2.418;2023-12-07T11:49:31;4.05;;;2.80;;
62353;SDS011;48391;49.184;2.418;2023-12-07T11:51:58;4.35;;;2.85;;
62353;SDS011;48391;49.184;2.418;2023-12-07T11:54:25;8.82;;;3.92;;
62353;SDS011;48391;49.184;2.418;2023-12-07T11:56:54;3.08;;;2.65;;
62353;SDS011;48391;49.184;2.418;2023-12-07T11:59:20;4.47;;;3.35;;
62353;SDS011;48391;49.184;2.418;2023-12-07T12:01:47;3.90;;;2.47;;
62353;SDS011;48391;49.184;2.418;2023-12-07T12:04:14;4.75;;;3.53;;
62353;SDS011;48391;49.184;2.418;2023-12-07T12:06:44;3.55;;;3.25;;
62353;SDS011;48391;49.184;2.418;2023-12-07T12:09:14;5.30;;;3.35;;
62353;SDS011;48391;49.184;2.418;2023-12-07T12:11:46;3.75;;;3.40;;
62353;SDS011;48391;49.184;2.418;2023-12-07T12:14:15;2.42;;;2.22;;
62353;SDS011;48391;49.184;2.418;2023-12-07T12:16:42;3.92;;;3.50;;
62353;SDS011;48391;49.184;2.418;2023-12-07T12:19:09;4.32;;;3.92;;
62353;SDS011;48391;49.184;2.418;2023-12-07T12:21:36;2.97;;;2.60;;
62353;SDS011;48391;49.184;2.418;2023-12-07T12:24:06;4.45;;;3.25;;
62353;SDS011;48391;49.184;2.418;2023-12-07T12:26:34;4.65;;;3.25;;
62353;SDS011;48391;49.184;2.418;2023-12-07T12:29:00;4.15;;;3.42;;
62353;SDS011;48391;49.184;2.418;2023-12-07T12:31:27;3.40;;;2.80;;
62353;SDS011;48391;49.184;2.418;2023-12-07T12:33:53;2.40;;;2.17;;
62353;SDS011;48391;49.184;2.418;2023-12-07T12:36:19;5.15;;;3.58;;
62353;SDS011;48391;49.184;2.418;2023-12-07T12:38:52;3.90;;;3.45;;
62353;SDS011;48391;49.184;2.418;2023-12-07T12:41:18;4.18;;;3.33;;
62353;SDS011;48391;49.184;2.418;2023-12-07T12:43:44;4.05;;;3.13;;
62353;SDS011;48391;49.184;2.418;2023-12-07T12:46:11;3.50;;;2.53;;
62353;SDS011;48391;49.184;2.418;2023-12-07T12:48:37;3.70;;;2.90;;
62353;SDS011;48391;49.184;2.418;2023-12-07T12:51:12;3.67;;;3.38;;
62353;SDS011;48391;49.184;2.418;2023-12-07T12:53:44;5.78;;;3.25;;
62353;SDS011;48391;49.184;2.418;2023-12-07T12:56:11;6.03;;;3.97;;
62353;SDS011;48391;49.184;2.418;2023-12-07T12:58:38;4.50;;;3.38;;
62353;SDS011;48391;49.184;2.418;2023-12-07T13:01:04;3.05;;;2.50;;
62353;SDS011;48391;49.184;2.418;2023-12-07T13:03:31;2.92;;;2.65;;
62353;SDS011;48391;49.184;2.418;2023-12-07T13:05:58;3.55;;;2.92;;
62353;SDS011;48391;49.184;2.418;2023-12-07T13:10:52;5.85;;;3.88;;
62353;SDS011;48391;49.184;2.418;2023-12-07T13:13:18;4.18;;;2.42;;
62353;SDS011;48391;49.184;2.418;2023-12-07T13:15:44;3.13;;;2.55;;
62353;SDS011;48391;49.184;2.418;2023-12-07T13:18:10;3.40;;;2.67;;
62353;SDS011;48391;49.184;2.418;2023-12-07T13:20:36;2.85;;;2.55;;
62353;SDS011;48391;49.184;2.418;2023-12-07T13:23:03;3.13;;;2.42;;
62353;SDS011;48391;49.184;2.418;2023-12-07T13:25:29;3.58;;;2.65;;
62353;SDS011;48391;49.184;2.418;2023-12-07T13:27:55;2.75;;;2.53;;
62353;SDS011;48391;49.184;2.418;2023-12-07T13:30:21;3.90;;;3.13;;
62353;SDS011;48391;49.184;2.418;2023-12-07T13:32:47;2.75;;;2.28;;
62353;SDS011;48391;49.184;2.418;2023-12-07T13:35:14;4.03;;;2.38;;
62353;SDS011;48391;49.184;2.418;2023-12-07T13:37:40;2.55;;;2.03;;
62353;SDS011;48391;49.184;2.418;2023-12-07T13:40:07;3.63;;;2.78;;
62353;SDS011;48391;49.184;2.418;2023-12-07T13:42:35;4.53;;;2.28;;
62353;SDS011;48391;49.184;2.418;2023-12-07T13:45:02;2.97;;;2.58;;
62353;SDS011;48391;49.184;2.418;2023-12-07T13:47:28;2.17;;;1.98;;
62353;SDS011;48391;49.184;2.418;2023-12-07T13:49:57;3.95;;;2.60;;
62353;SDS011;48391;49.184;2.418;2023-12-07T13:52:24;3.45;;;2.40;;
62353;SDS011;48391;49.184;2.418;2023-12-07T13:54:50;3.22;;;2.45;;
62353;SDS011;48391;49.184;2.418;2023-12-07T13:57:17;2.97;;;2.67;;
62353;SDS011;48391;49.184;2.418;2023-12-07T13:59:44;4.43;;;2.40;;
62353;SDS011;48391;49.184;2.418;2023-12-07T14:02:10;3.20;;;2.25;;
62353;SDS011;48391;49.184;2.418;2023-12-07T14:04:37;3.00;;;2.75;;
62353;SDS011;48391;49.184;2.418;2023-12-07T14:07:10;3.58;;;1.85;;
62353;SDS011;48391;49.184;2.418;2023-12-07T14:09:37;2.80;;;2.13;;
62353;SDS011;48391;49.184;2.418;2023-12-07T14:12:03;4.38;;;3.05;;
62353;SDS011;48391;49.184;2.418;2023-12-07T14:14:30;3.75;;;2.55;;
62353;SDS011;48391;49.184;2.418;2023-12-07T14:16:56;2.63;;;2.40;;
62353;SDS011;48391;49.184;2.418;2023-12-07T14:19:23;3.05;;;2.63;;
62353;SDS011;48391;49.184;2.418;2023-12-07T14:21:49;3.60;;;2.58;;
62353;SDS011;48391;49.184;2.418;2023-12-07T14:24:15;2.47;;;2.05;;
62353;SDS011;48391;49.184;2.418;2023-12-07T14:26:44;1.85;;;1.65;;
62353;SDS011;48391;49.184;2.418;2023-12-07T14:29:10;4.55;;;2.45;;
62353;SDS011;48391;49.184;2.418;2023-12-07T14:31:43;2.13;;;1.67;;
62353;SDS011;48391;49.184;2.418;2023-12-07T14:34:10;1.88;;;1.70;;
62353;SDS011;48391;49.184;2.418;2023-12-07T14:36:36;2.60;;;1.88;;
62353;SDS011;48391;49.184;2.418;2023-12-07T14:39:04;3.90;;;2.55;;
62353;SDS011;48391;49.184;2.418;2023-12-07T14:41:33;3.42;;;2.45;;